Aviation Digital Data Service (ADDS)

Output produced by METARs form (0414 UTC 25 October 2014)
found at http://www.aviationweather.gov/adds/metars/
 
KJFK 250401Z 2504/2606 31007KT P6SM SCT250 
     FM251500 29011KT P6SM SKC 
     FM251800 25013KT P6SM SCT050 
     FM260400 26014KT P6SM BKN050